createdAt,value
2023-05-16T00:01:24.908Z,19.70
2023-05-16T00:03:54.233Z,19.70
2023-05-16T00:06:22.553Z,19.70
2023-05-16T00:08:50.684Z,19.70
2023-05-16T00:11:18.945Z,19.70
2023-05-16T00:13:47.798Z,19.70
2023-05-16T00:16:15.824Z,19.70
2023-05-16T00:18:45.672Z,19.70
2023-05-16T00:21:15.279Z,19.70
2023-05-16T00:23:43.652Z,19.70
2023-05-16T00:26:11.562Z,19.70
2023-05-16T00:28:39.439Z,19.70
2023-05-16T00:31:07.322Z,19.70
2023-05-16T00:33:35.815Z,19.70
2023-05-16T00:36:03.683Z,19.70
2023-05-16T00:38:32.891Z,19.70
2023-05-16T00:41:00.823Z,19.70
2023-05-16T00:43:28.903Z,19.70
2023-05-16T00:45:57.929Z,19.70
2023-05-16T00:48:26.262Z,19.70
2023-05-16T00:50:54.790Z,19.70
2023-05-16T00:53:22.685Z,19.70
2023-05-16T00:55:53.164Z,19.70
2023-05-16T00:58:22.773Z,19.70
2023-05-16T01:00:51.234Z,19.70
2023-05-16T01:03:19.798Z,19.70
2023-05-16T01:05:48.193Z,19.70
2023-05-16T01:08:16.038Z,19.70
2023-05-16T01:10:51.535Z,19.70
2023-05-16T01:13:29.852Z,19.70
2023-05-16T01:16:05.819Z,19.70
2023-05-16T01:18:42.752Z,19.70
2023-05-16T01:21:16.221Z,19.70
2023-05-16T01:23:53.629Z,19.70
2023-05-16T01:26:23.936Z,19.70
2023-05-16T01:28:53.001Z,19.70
2023-05-16T01:31:21.818Z,19.70
2023-05-16T01:33:50.471Z,19.70
2023-05-16T01:36:25.970Z,19.70
2023-05-16T01:39:03.390Z,19.70
2023-05-16T01:41:41.697Z,19.70
2023-05-16T01:44:17.599Z,19.70
2023-05-16T01:46:48.422Z,19.70
2023-05-16T01:49:21.343Z,19.70
2023-05-16T01:51:52.875Z,19.70
2023-05-16T01:54:22.715Z,19.70
2023-05-16T01:56:55.757Z,19.70
2023-05-16T01:59:25.884Z,19.70
2023-05-16T02:01:55.262Z,19.70
2023-05-16T02:04:24.309Z,19.70
2023-05-16T02:06:52.647Z,19.70
2023-05-16T02:09:20.568Z,19.70
2023-05-16T02:11:48.920Z,19.70
2023-05-16T02:14:18.157Z,19.70
2023-05-16T02:16:46.386Z,19.60
2023-05-16T02:19:14.467Z,19.70
2023-05-16T02:21:43.536Z,19.70
2023-05-16T02:24:11.424Z,19.60
2023-05-16T02:26:39.291Z,19.60
2023-05-16T02:29:07.213Z,19.70
2023-05-16T02:31:36.616Z,19.70
2023-05-16T02:34:04.611Z,19.70
2023-05-16T02:36:34.821Z,19.70
2023-05-16T02:39:04.104Z,19.70
2023-05-16T02:41:33.097Z,19.70
2023-05-16T02:44:00.935Z,19.60
2023-05-16T02:46:30.745Z,19.70
2023-05-16T02:49:00.351Z,19.70
2023-05-16T02:51:29.466Z,19.70
2023-05-16T02:53:59.625Z,19.70
2023-05-16T02:56:27.689Z,19.70
2023-05-16T02:58:56.450Z,19.70
2023-05-16T03:01:24.332Z,19.70
2023-05-16T03:03:52.399Z,19.70
2023-05-16T03:06:21.672Z,19.70
2023-05-16T03:08:49.636Z,19.70
2023-05-16T03:11:20.704Z,19.60
2023-05-16T03:13:48.604Z,19.70
2023-05-16T03:16:16.699Z,19.70
2023-05-16T03:18:45.199Z,19.70
2023-05-16T03:21:13.516Z,19.70
2023-05-16T03:23:42.741Z,19.70
2023-05-16T03:26:10.730Z,19.70
2023-05-16T03:28:38.623Z,19.70
2023-05-16T03:31:06.705Z,19.70
2023-05-16T03:33:34.612Z,19.60
2023-05-16T03:36:02.540Z,19.70
2023-05-16T03:38:30.766Z,19.60
2023-05-16T03:41:00.024Z,19.60
2023-05-16T03:43:27.859Z,19.70
2023-05-16T03:45:55.956Z,19.60
2023-05-16T03:48:23.864Z,19.60
2023-05-16T03:50:52.352Z,19.60
2023-05-16T03:53:20.208Z,19.60
2023-05-16T03:55:48.896Z,19.60
2023-05-16T03:58:18.297Z,19.60
2023-05-16T04:00:46.832Z,19.60
2023-05-16T04:03:14.871Z,19.60
2023-05-16T04:05:43.137Z,19.60
2023-05-16T04:08:11.147Z,19.60
2023-05-16T04:10:39.244Z,19.60
2023-05-16T04:13:07.147Z,19.60
2023-05-16T04:15:36.370Z,19.60
2023-05-16T04:18:05.095Z,19.60
2023-05-16T04:20:33.261Z,19.60
2023-05-16T04:23:01.176Z,19.60
2023-05-16T04:25:29.358Z,19.60
2023-05-16T04:27:57.463Z,19.60
2023-05-16T04:30:25.371Z,19.60
2023-05-16T04:32:54.595Z,19.60
2023-05-16T04:35:23.006Z,19.60
2023-05-16T04:37:51.204Z,19.60
2023-05-16T04:40:19.119Z,19.60
2023-05-16T04:42:47.364Z,19.60
2023-05-16T04:45:15.440Z,19.60
2023-05-16T04:47:43.480Z,19.60
2023-05-16T04:50:13.080Z,19.60
2023-05-16T04:52:41.106Z,19.60
2023-05-16T04:55:10.117Z,19.60
2023-05-16T04:57:37.958Z,19.60
2023-05-16T05:00:10.439Z,19.60
2023-05-16T05:02:38.889Z,19.60
2023-05-16T05:05:08.282Z,19.60
2023-05-16T05:07:37.663Z,19.50
2023-05-16T05:10:07.683Z,19.60
2023-05-16T05:12:36.773Z,19.60
2023-05-16T05:15:05.045Z,19.60
2023-05-16T05:17:33.240Z,19.60
2023-05-16T05:20:02.927Z,19.60
2023-05-16T05:22:31.267Z,19.50
2023-05-16T05:25:00.487Z,19.60
2023-05-16T05:27:28.599Z,19.60
2023-05-16T05:29:56.455Z,19.60
2023-05-16T05:32:24.327Z,19.60
2023-05-16T05:34:52.596Z,19.50
2023-05-16T05:37:20.569Z,19.50
2023-05-16T05:39:48.459Z,19.60
2023-05-16T05:42:17.690Z,19.60
2023-05-16T05:44:45.666Z,19.60
2023-05-16T05:47:13.625Z,19.60
2023-05-16T05:49:41.596Z,19.60
2023-05-16T05:52:09.463Z,19.50
2023-05-16T05:54:37.415Z,19.60
2023-05-16T05:57:05.481Z,19.50
2023-05-16T05:59:34.742Z,19.50
2023-05-16T06:02:02.698Z,19.50
2023-05-16T06:04:30.607Z,19.50
2023-05-16T06:06:58.638Z,19.50
2023-05-16T06:09:26.504Z,19.50
2023-05-16T06:11:54.332Z,19.50
2023-05-16T06:14:22.219Z,19.50
2023-05-16T06:16:51.447Z,19.50
2023-05-16T06:19:19.507Z,19.50
2023-05-16T06:21:47.425Z,19.50
2023-05-16T06:24:15.309Z,19.50
2023-05-16T06:26:46.091Z,19.50
2023-05-16T06:29:13.940Z,19.50
2023-05-16T06:31:41.896Z,19.50
2023-05-16T06:34:11.207Z,19.50
2023-05-16T06:36:39.259Z,19.50
2023-05-16T06:39:07.478Z,19.50
2023-05-16T06:41:35.368Z,19.50
2023-05-16T06:44:03.249Z,19.50
2023-05-16T06:46:31.219Z,19.50
2023-05-16T06:48:59.138Z,19.50
2023-05-16T06:51:28.397Z,19.50
2023-05-16T06:53:56.274Z,19.50
2023-05-16T06:56:24.574Z,19.50
2023-05-16T06:58:52.493Z,19.50
2023-05-16T07:01:20.435Z,19.50
2023-05-16T07:03:48.479Z,19.50
2023-05-16T07:06:16.428Z,19.50
2023-05-16T07:08:45.669Z,19.50
2023-05-16T07:11:13.621Z,19.50
2023-05-16T07:13:41.493Z,19.50
2023-05-16T07:16:09.410Z,19.50
2023-05-16T07:18:37.344Z,19.50
2023-05-16T07:21:05.711Z,19.50
2023-05-16T07:23:33.565Z,19.50
2023-05-16T07:26:02.849Z,19.50
2023-05-16T07:28:30.753Z,19.50
2023-05-16T07:30:59.122Z,19.50
2023-05-16T07:33:27.426Z,19.50
2023-05-16T07:36:07.841Z,19.50
2023-05-16T07:38:43.031Z,19.50
2023-05-16T07:41:12.377Z,19.50
2023-05-16T07:43:40.304Z,19.50
2023-05-16T07:46:08.304Z,19.50
2023-05-16T07:48:36.263Z,19.50
2023-05-16T07:51:04.324Z,19.50
2023-05-16T07:53:32.271Z,19.50
2023-05-16T07:56:00.401Z,19.40
2023-05-16T07:58:29.789Z,19.50
2023-05-16T08:00:57.726Z,19.40
2023-05-16T08:03:25.972Z,19.50
2023-05-16T08:05:54.004Z,19.40
2023-05-16T08:08:21.984Z,19.50
2023-05-16T08:10:49.883Z,19.50
2023-05-16T08:13:17.803Z,19.50
2023-05-16T08:15:47.387Z,19.50
2023-05-16T08:18:16.658Z,19.50
2023-05-16T08:20:44.932Z,19.50
2023-05-16T08:23:13.052Z,19.50
2023-05-16T08:25:41.023Z,19.50
2023-05-16T08:28:08.921Z,19.50
2023-05-16T08:30:36.824Z,19.50
2023-05-16T08:33:07.298Z,19.50
2023-05-16T08:35:36.039Z,19.50
2023-05-16T08:38:04.277Z,19.50
2023-05-16T08:40:32.458Z,19.50
2023-05-16T08:43:00.616Z,19.50
2023-05-16T08:45:29.610Z,19.50
2023-05-16T08:47:58.643Z,19.50
2023-05-16T08:50:32.062Z,19.50
2023-05-16T08:53:07.047Z,19.50
2023-05-16T08:55:35.898Z,19.50
2023-05-16T08:58:04.149Z,19.50
2023-05-16T09:00:32.602Z,19.50
2023-05-16T09:03:01.334Z,19.50
2023-05-16T09:05:31.427Z,19.50
2023-05-16T09:07:59.492Z,19.40
2023-05-16T09:10:27.813Z,19.50
2023-05-16T09:12:55.712Z,19.40
2023-05-16T09:15:23.634Z,19.40
2023-05-16T09:17:52.025Z,19.40
2023-05-16T09:20:21.499Z,19.40
2023-05-16T09:22:55.507Z,19.40
2023-05-16T09:27:55.866Z,19.40
2023-05-16T09:30:25.091Z,19.40
2023-05-16T09:32:54.275Z,19.40
2023-05-16T09:35:35.112Z,19.40
2023-05-16T09:38:16.915Z,19.40
2023-05-16T09:40:45.939Z,19.40
2023-05-16T09:43:17.194Z,19.40
2023-05-16T09:45:48.900Z,19.40
2023-05-16T09:48:18.120Z,19.40
2023-05-16T09:50:52.259Z,19.40
2023-05-16T09:53:27.914Z,19.40
2023-05-16T09:56:03.490Z,19.40
2023-05-16T09:58:32.082Z,19.40
2023-05-16T10:01:00.617Z,19.40
2023-05-16T10:03:29.187Z,19.40
2023-05-16T10:05:57.476Z,19.40
2023-05-16T10:08:27.719Z,19.40
2023-05-16T10:10:57.013Z,19.40
2023-05-16T10:13:30.979Z,19.40
2023-05-16T10:16:00.523Z,19.40
2023-05-16T10:18:31.592Z,19.40
2023-05-16T10:21:04.639Z,19.40
2023-05-16T10:23:34.768Z,19.40
2023-05-16T10:26:06.026Z,19.40
2023-05-16T10:28:34.215Z,19.40
2023-05-16T10:31:03.153Z,19.40
2023-05-16T10:33:31.397Z,19.40
2023-05-16T10:35:59.871Z,19.40
2023-05-16T10:38:29.448Z,19.40
2023-05-16T10:40:59.474Z,19.40
2023-05-16T10:43:28.629Z,19.30
2023-05-16T10:45:57.931Z,19.40
2023-05-16T10:48:33.725Z,19.40
2023-05-16T10:51:03.018Z,19.40
2023-05-16T10:53:32.656Z,19.40
2023-05-16T10:56:12.679Z,19.40
2023-05-16T10:58:45.637Z,19.40
2023-05-16T11:01:28.012Z,19.30
2023-05-16T11:04:11.144Z,19.40
2023-05-16T11:06:50.626Z,19.40
2023-05-16T11:09:28.419Z,19.40
2023-05-16T11:12:03.352Z,19.40
2023-05-16T11:14:38.857Z,19.40
2023-05-16T11:17:12.171Z,19.40
2023-05-16T11:19:45.212Z,19.40
2023-05-16T11:22:24.470Z,19.30
2023-05-16T11:24:57.696Z,19.30
2023-05-16T11:27:29.419Z,19.30
2023-05-16T11:30:03.253Z,19.30
2023-05-16T11:32:33.097Z,19.40
2023-05-16T11:35:01.293Z,19.30
2023-05-16T11:37:29.707Z,19.40
2023-05-16T11:40:01.279Z,19.30
2023-05-16T11:42:33.905Z,19.30
2023-05-16T11:45:06.700Z,19.30
2023-05-16T11:47:34.910Z,19.30
2023-05-16T11:50:05.653Z,19.30
2023-05-16T11:52:34.160Z,19.30
2023-05-16T11:55:02.319Z,19.30
2023-05-16T11:57:32.153Z,19.30
2023-05-16T12:00:08.002Z,19.30
2023-05-16T12:02:36.067Z,19.30
2023-05-16T12:05:09.761Z,19.30
2023-05-16T12:07:38.080Z,19.30
2023-05-16T12:10:07.655Z,19.30
2023-05-16T12:12:37.764Z,19.30
2023-05-16T12:15:07.577Z,19.30
2023-05-16T12:17:35.852Z,19.30
2023-05-16T12:20:06.225Z,19.30
2023-05-16T12:22:34.632Z,19.30
2023-05-16T12:25:22.156Z,19.30
2023-05-16T12:27:51.732Z,19.30
2023-05-16T12:30:22.686Z,19.30
2023-05-16T12:32:54.897Z,19.30
2023-05-16T12:35:23.001Z,19.30
2023-05-16T12:37:51.997Z,19.30
2023-05-16T12:40:20.725Z,19.30
2023-05-16T12:42:52.598Z,19.30
2023-05-16T12:45:21.114Z,19.30
2023-05-16T12:47:49.119Z,19.30
2023-05-16T12:50:17.661Z,19.30
2023-05-16T12:52:50.885Z,19.30
2023-05-16T12:55:19.658Z,19.30
2023-05-16T12:57:49.201Z,19.30
2023-05-16T13:00:20.259Z,19.30
2023-05-16T13:02:49.207Z,19.30
2023-05-16T13:05:18.458Z,19.30
2023-05-16T13:07:46.342Z,19.30
2023-05-16T13:10:14.267Z,19.30
2023-05-16T13:12:43.160Z,19.30
2023-05-16T13:15:12.885Z,19.30
2023-05-16T13:17:44.003Z,19.30
2023-05-16T13:20:14.742Z,19.30
2023-05-16T13:22:43.310Z,19.30
2023-05-16T13:25:12.120Z,19.30
2023-05-16T13:27:40.140Z,19.30
2023-05-16T13:30:09.264Z,19.30
2023-05-16T13:32:38.156Z,19.30
2023-05-16T13:35:08.457Z,19.30
2023-05-16T13:37:36.707Z,19.30
2023-05-16T13:40:05.382Z,19.30
2023-05-16T13:42:33.312Z,19.30
2023-05-16T13:45:01.225Z,19.30
2023-05-16T13:47:29.568Z,19.30
2023-05-16T13:49:57.549Z,19.30
2023-05-16T13:52:26.889Z,19.30
2023-05-16T13:54:54.799Z,19.20
2023-05-16T13:57:23.203Z,19.30
2023-05-16T14:02:21.983Z,19.30
2023-05-16T14:04:50.142Z,19.30
2023-05-16T14:07:18.242Z,19.30
2023-05-16T14:09:47.499Z,19.30
2023-05-16T14:12:15.415Z,19.20
2023-05-16T14:14:43.393Z,19.30
2023-05-16T14:17:11.317Z,19.30
2023-05-16T14:19:39.216Z,19.30
2023-05-16T14:22:08.097Z,19.30
2023-05-16T14:24:36.193Z,19.30
2023-05-16T14:27:05.674Z,19.20
2023-05-16T14:29:33.578Z,19.30
2023-05-16T14:32:01.579Z,19.30
2023-05-16T14:34:29.500Z,19.30
2023-05-16T14:36:57.451Z,19.30
2023-05-16T14:39:25.589Z,19.30
2023-05-16T14:41:53.482Z,19.30
2023-05-16T14:44:24.749Z,19.30
2023-05-16T14:46:52.741Z,19.30
2023-05-16T14:49:20.948Z,19.30
2023-05-16T14:51:50.835Z,19.30
2023-05-16T14:54:19.131Z,19.30
2023-05-16T14:56:47.035Z,19.20
2023-05-16T14:59:15.096Z,19.30
2023-05-16T15:01:44.354Z,19.30
2023-05-16T15:04:12.391Z,19.30
2023-05-16T15:06:40.547Z,19.30
2023-05-16T15:09:08.534Z,19.30
2023-05-16T15:11:36.578Z,19.30
2023-05-16T15:14:04.487Z,19.30
2023-05-16T15:16:32.436Z,19.20
2023-05-16T15:19:01.787Z,19.20
2023-05-16T15:21:31.492Z,19.20
2023-05-16T15:23:59.727Z,19.20
2023-05-16T15:26:27.942Z,19.20
2023-05-16T15:28:56.028Z,19.20
2023-05-16T15:31:24.009Z,19.30
2023-05-16T15:33:51.937Z,19.20
2023-05-16T15:36:21.218Z,19.20
2023-05-16T15:38:49.132Z,19.20
2023-05-16T15:41:36.819Z,19.20
2023-05-16T15:44:05.397Z,19.20
2023-05-16T15:46:33.560Z,19.20
2023-05-16T15:49:01.477Z,19.20
2023-05-16T15:51:30.849Z,19.20
2023-05-16T15:53:58.720Z,19.20
2023-05-16T15:56:26.654Z,19.20
2023-05-16T15:58:56.886Z,19.20
2023-05-16T16:01:24.815Z,19.20
2023-05-16T16:03:52.968Z,19.20
2023-05-16T16:06:21.606Z,19.20
2023-05-16T16:08:50.877Z,19.20
2023-05-16T16:11:21.274Z,19.20
2023-05-16T16:13:49.423Z,19.20
2023-05-16T16:16:17.587Z,19.20
2023-05-16T16:18:45.930Z,19.20
2023-05-16T16:21:13.972Z,19.20
2023-05-16T16:23:42.083Z,19.20
2023-05-16T16:26:11.349Z,19.20
2023-05-16T16:28:39.219Z,19.20
2023-05-16T16:31:07.185Z,19.20
2023-05-16T16:33:35.106Z,19.20
2023-05-16T16:36:03.182Z,19.20
2023-05-16T16:38:31.091Z,19.20
2023-05-16T16:40:58.994Z,19.20
2023-05-16T16:43:28.231Z,19.20
2023-05-16T16:45:56.344Z,19.20
2023-05-16T16:48:24.324Z,19.20
2023-05-16T16:50:52.799Z,19.20
2023-05-16T16:53:20.742Z,19.20
2023-05-16T16:55:48.674Z,19.20
2023-05-16T16:58:16.765Z,19.20
2023-05-16T17:00:46.354Z,19.20
2023-05-16T17:03:14.401Z,19.20
2023-05-16T17:05:43.310Z,19.20
2023-05-16T17:08:12.160Z,19.20
2023-05-16T17:10:40.346Z,19.20
2023-05-16T17:13:10.423Z,19.20
2023-05-16T17:15:38.755Z,19.20
2023-05-16T17:18:08.269Z,19.20
2023-05-16T17:20:36.552Z,19.20
2023-05-16T17:23:05.375Z,19.20
2023-05-16T17:25:33.406Z,19.20
2023-05-16T17:28:01.268Z,19.20
2023-05-16T17:30:29.175Z,19.20
2023-05-16T17:32:57.562Z,19.20
2023-05-16T17:35:28.767Z,19.20
2023-05-16T17:37:56.881Z,19.20
2023-05-16T17:40:25.299Z,19.20
2023-05-16T17:42:54.235Z,19.20
2023-05-16T17:45:22.303Z,19.20
2023-05-16T17:47:50.494Z,19.20
2023-05-16T17:50:19.897Z,19.20
2023-05-16T17:52:49.191Z,19.20
2023-05-16T17:55:17.213Z,19.20
2023-05-16T17:57:45.310Z,19.20
2023-05-16T18:00:15.261Z,19.10
2023-05-16T18:02:43.207Z,19.20
2023-05-16T18:05:12.044Z,19.20
2023-05-16T18:07:40.071Z,19.10
2023-05-16T18:10:11.386Z,19.20
2023-05-16T18:12:39.841Z,19.20
2023-05-16T18:15:09.142Z,19.20
2023-05-16T18:17:37.216Z,19.10
2023-05-16T18:20:09.567Z,19.20
2023-05-16T18:22:37.957Z,19.10
2023-05-16T18:25:06.840Z,19.20
2023-05-16T18:27:36.581Z,19.10
2023-05-16T18:30:05.580Z,19.10
2023-05-16T18:32:33.689Z,19.20
2023-05-16T18:35:01.627Z,19.10
2023-05-16T18:37:29.630Z,19.20
2023-05-16T18:39:57.595Z,19.20
2023-05-16T18:42:27.216Z,19.20
2023-05-16T18:44:56.475Z,19.10
2023-05-16T18:47:24.574Z,19.10
2023-05-16T18:49:52.664Z,19.10
2023-05-16T18:52:20.753Z,19.10
2023-05-16T18:54:48.652Z,19.10
2023-05-16T18:57:16.753Z,19.10
2023-05-16T18:59:44.691Z,19.10
2023-05-16T19:02:13.975Z,19.10
2023-05-16T19:04:41.981Z,19.10
2023-05-16T19:07:10.004Z,19.10
2023-05-16T19:09:37.969Z,19.10
2023-05-16T19:12:06.826Z,19.10
2023-05-16T19:14:35.033Z,19.10
2023-05-16T19:17:03.818Z,19.10
2023-05-16T19:19:33.142Z,19.10
2023-05-16T19:22:01.165Z,19.10
2023-05-16T19:24:29.064Z,19.10
2023-05-16T19:26:57.075Z,19.10
2023-05-16T19:29:25.025Z,19.10
2023-05-16T19:31:53.085Z,19.10
2023-05-16T19:34:21.287Z,19.10
2023-05-16T19:36:50.679Z,19.10
2023-05-16T19:39:19.751Z,19.10
2023-05-16T19:41:51.620Z,19.10
2023-05-16T19:44:20.263Z,19.10
2023-05-16T19:46:48.324Z,19.10
2023-05-16T19:49:19.557Z,19.10
2023-05-16T19:51:48.165Z,19.10
2023-05-16T19:54:17.418Z,19.10
2023-05-16T19:56:45.369Z,19.10
2023-05-16T19:59:13.369Z,19.10
2023-05-16T20:04:14.370Z,19.10
2023-05-16T20:06:42.549Z,19.10
2023-05-16T20:09:11.234Z,19.10
2023-05-16T20:11:40.546Z,19.10
2023-05-16T20:14:08.519Z,19.10
2023-05-16T20:16:36.475Z,19.10
2023-05-16T20:19:04.467Z,19.10
2023-05-16T20:21:32.468Z,19.10
2023-05-16T20:24:00.361Z,19.10
2023-05-16T20:26:28.275Z,19.10
2023-05-16T20:28:57.547Z,19.10
2023-05-16T20:31:25.518Z,19.10
2023-05-16T20:33:53.433Z,19.10
2023-05-16T20:36:21.522Z,19.10
2023-05-16T20:38:49.506Z,19.10
2023-05-16T20:41:17.574Z,19.10
2023-05-16T20:43:46.789Z,19.10
2023-05-16T20:46:16.231Z,19.10
2023-05-16T20:48:44.219Z,19.10
2023-05-16T20:51:12.158Z,19.10
2023-05-16T20:53:40.045Z,19.10
2023-05-16T20:56:07.953Z,19.10
2023-05-16T20:58:35.827Z,19.10
2023-05-16T21:01:03.721Z,19.00
2023-05-16T21:03:33.029Z,19.10
2023-05-16T21:06:00.933Z,19.10
2023-05-16T21:08:28.873Z,19.00
2023-05-16T21:10:56.796Z,19.10
2023-05-16T21:13:25.006Z,19.10
2023-05-16T21:15:53.044Z,19.10
2023-05-16T21:18:21.071Z,19.00
2023-05-16T21:20:50.472Z,19.10
2023-05-16T21:23:18.412Z,19.10
2023-05-16T21:25:46.306Z,19.10
2023-05-16T21:28:14.206Z,19.00
2023-05-16T21:30:42.130Z,19.00
2023-05-16T21:33:10.219Z,19.10
2023-05-16T21:35:38.385Z,19.10
2023-05-16T21:38:07.769Z,19.10
2023-05-16T21:40:35.773Z,19.10
2023-05-16T21:43:03.737Z,19.10
2023-05-16T21:45:31.880Z,19.00
2023-05-16T21:47:59.888Z,19.00
2023-05-16T21:50:28.173Z,19.00
2023-05-16T21:52:56.120Z,19.00
2023-05-16T21:55:25.895Z,19.00
2023-05-16T21:57:53.942Z,19.10
2023-05-16T22:00:21.963Z,19.00
2023-05-16T22:02:50.080Z,19.00
2023-05-16T22:05:19.191Z,19.00
2023-05-16T22:07:47.165Z,19.00
2023-05-16T22:10:16.822Z,19.00
2023-05-16T22:12:46.084Z,19.00
2023-05-16T22:15:13.986Z,19.00
2023-05-16T22:17:42.275Z,19.00
2023-05-16T22:20:11.025Z,19.00
2023-05-16T22:22:38.913Z,19.00
2023-05-16T22:25:07.887Z,19.00
2023-05-16T22:27:35.861Z,19.00
2023-05-16T22:30:06.109Z,19.00
2023-05-16T22:32:34.083Z,19.00
2023-05-16T22:35:02.004Z,19.00
2023-05-16T22:37:29.955Z,19.00
2023-05-16T22:39:57.962Z,19.00
2023-05-16T22:42:25.964Z,19.00
2023-05-16T22:44:53.905Z,19.00
2023-05-16T22:47:23.149Z,19.00
2023-05-16T22:49:51.088Z,19.00
2023-05-16T22:52:18.988Z,19.00
2023-05-16T22:54:46.916Z,19.00
2023-05-16T22:57:14.959Z,19.00
2023-05-16T22:59:42.947Z,19.00
2023-05-16T23:02:10.837Z,19.00
2023-05-16T23:04:40.121Z,19.00
2023-05-16T23:07:08.036Z,19.00
2023-05-16T23:09:36.121Z,19.00
2023-05-16T23:12:04.197Z,19.00
2023-05-16T23:14:32.173Z,19.00
2023-05-16T23:17:00.083Z,19.00
2023-05-16T23:19:28.063Z,19.00
2023-05-16T23:21:57.543Z,19.00
2023-05-16T23:24:25.475Z,18.90
2023-05-16T23:26:53.429Z,19.00
2023-05-16T23:29:21.370Z,19.00
2023-05-16T23:31:49.313Z,18.90
2023-05-16T23:34:17.217Z,19.00
2023-05-16T23:36:45.182Z,18.90
2023-05-16T23:39:14.567Z,19.00
2023-05-16T23:41:42.485Z,18.90
2023-05-16T23:44:10.427Z,18.90
2023-05-16T23:46:38.350Z,18.90
2023-05-16T23:49:06.463Z,18.90
2023-05-16T23:51:52.206Z,18.90
2023-05-16T23:54:23.633Z,18.90
2023-05-16T23:56:51.978Z,18.90
2023-05-16T23:59:20.286Z,18.90
